sensor_id;sensor_type;location;lat;lon;timestamp;temperature;humidity
4487;DHT22;2256;48.740;9.106;2023-05-10T00:00:17;13.60;99.90
4487;DHT22;2256;48.740;9.106;2023-05-10T00:02:44;13.60;99.90
4487;DHT22;2256;48.740;9.106;2023-05-10T00:05:11;13.60;99.90
4487;DHT22;2256;48.740;9.106;2023-05-10T00:07:39;13.50;99.90
4487;DHT22;2256;48.740;9.106;2023-05-10T00:10:06;13.50;99.90
4487;DHT22;2256;48.740;9.106;2023-05-10T00:12:34;13.50;99.90
4487;DHT22;2256;48.740;9.106;2023-05-10T00:15:01;13.20;99.90
4487;DHT22;2256;48.740;9.106;2023-05-10T00:17:28;13.30;99.90
4487;DHT22;2256;48.740;9.106;2023-05-10T00:19:55;13.20;99.90
4487;DHT22;2256;48.740;9.106;2023-05-10T00:22:22;13.20;99.90
4487;DHT22;2256;48.740;9.106;2023-05-10T00:24:50;13.20;99.90
4487;DHT22;2256;48.740;9.106;2023-05-10T00:27:17;13.10;99.90
4487;DHT22;2256;48.740;9.106;2023-05-10T00:29:44;13.10;99.90
4487;DHT22;2256;48.740;9.106;2023-05-10T00:32:10;13.20;99.90
4487;DHT22;2256;48.740;9.106;2023-05-10T00:34:39;13.10;99.90
4487;DHT22;2256;48.740;9.106;2023-05-10T00:37:06;13.10;99.90
4487;DHT22;2256;48.740;9.106;2023-05-10T00:39:33;13.10;99.90
4487;DHT22;2256;48.740;9.106;2023-05-10T00:42:01;13.10;99.90
4487;DHT22;2256;48.740;9.106;2023-05-10T00:44:28;13.10;99.90
4487;DHT22;2256;48.740;9.106;2023-05-10T00:46:54;13.00;99.90
4487;DHT22;2256;48.740;9.106;2023-05-10T00:49:21;12.90;99.90
4487;DHT22;2256;48.740;9.106;2023-05-10T00:51:48;12.80;99.90
4487;DHT22;2256;48.740;9.106;2023-05-10T00:54:16;12.80;99.90
4487;DHT22;2256;48.740;9.106;2023-05-10T00:56:42;12.80;99.90
4487;DHT22;2256;48.740;9.106;2023-05-10T00:59:15;12.70;99.90
4487;DHT22;2256;48.740;9.106;2023-05-10T01:01:43;12.80;99.90
4487;DHT22;2256;48.740;9.106;2023-05-10T01:04:11;12.70;99.90
4487;DHT22;2256;48.740;9.106;2023-05-10T01:06:38;12.70;99.90
4487;DHT22;2256;48.740;9.106;2023-05-10T01:09:05;12.70;99.90
4487;DHT22;2256;48.740;9.106;2023-05-10T01:11:32;12.70;99.90
4487;DHT22;2256;48.740;9.106;2023-05-10T01:13:59;12.70;99.90
4487;DHT22;2256;48.740;9.106;2023-05-10T01:16:27;12.70;99.90
4487;DHT22;2256;48.740;9.106;2023-05-10T01:18:56;12.70;99.90
4487;DHT22;2256;48.740;9.106;2023-05-10T01:21:27;12.60;99.90
4487;DHT22;2256;48.740;9.106;2023-05-10T01:24:12;12.60;99.90
4487;DHT22;2256;48.740;9.106;2023-05-10T01:27:02;12.60;99.90
4487;DHT22;2256;48.740;9.106;2023-05-10T01:32:48;12.60;99.90
4487;DHT22;2256;48.740;9.106;2023-05-10T01:35:22;12.60;99.90
4487;DHT22;2256;48.740;9.106;2023-05-10T01:37:57;12.60;99.90
4487;DHT22;2256;48.740;9.106;2023-05-10T01:40:30;12.60;99.90
4487;DHT22;2256;48.740;9.106;2023-05-10T01:43:02;12.60;99.90
4487;DHT22;2256;48.740;9.106;2023-05-10T01:45:33;12.40;99.90
4487;DHT22;2256;48.740;9.106;2023-05-10T01:48:06;12.50;99.90
4487;DHT22;2256;48.740;9.106;2023-05-10T01:50:36;12.50;99.90
4487;DHT22;2256;48.740;9.106;2023-05-10T01:53:06;12.50;99.90
4487;DHT22;2256;48.740;9.106;2023-05-10T01:55:41;12.50;99.90
4487;DHT22;2256;48.740;9.106;2023-05-10T01:58:11;12.50;99.90
4487;DHT22;2256;48.740;9.106;2023-05-10T02:00:42;12.40;99.90
4487;DHT22;2256;48.740;9.106;2023-05-10T02:03:11;12.40;99.90
4487;DHT22;2256;48.740;9.106;2023-05-10T02:05:38;12.40;99.90
4487;DHT22;2256;48.740;9.106;2023-05-10T02:08:09;12.40;99.90
4487;DHT22;2256;48.740;9.106;2023-05-10T02:10:36;12.40;99.90
4487;DHT22;2256;48.740;9.106;2023-05-10T02:13:05;12.30;99.90
4487;DHT22;2256;48.740;9.106;2023-05-10T02:15:34;12.30;99.90
4487;DHT22;2256;48.740;9.106;2023-05-10T02:18:02;12.30;99.90
4487;DHT22;2256;48.740;9.106;2023-05-10T02:20:33;12.30;99.90
4487;DHT22;2256;48.740;9.106;2023-05-10T02:23:01;12.30;99.90
4487;DHT22;2256;48.740;9.106;2023-05-10T02:25:28;12.20;99.90
4487;DHT22;2256;48.740;9.106;2023-05-10T02:27:57;12.30;99.90
4487;DHT22;2256;48.740;9.106;2023-05-10T02:30:24;12.20;99.90
4487;DHT22;2256;48.740;9.106;2023-05-10T02:32:52;12.20;99.90
4487;DHT22;2256;48.740;9.106;2023-05-10T02:35:20;12.20;99.90
4487;DHT22;2256;48.740;9.106;2023-05-10T02:37:48;12.20;99.90
4487;DHT22;2256;48.740;9.106;2023-05-10T02:40:17;12.30;99.90
4487;DHT22;2256;48.740;9.106;2023-05-10T02:42:47;12.30;99.90
4487;DHT22;2256;48.740;9.106;2023-05-10T02:45:18;12.30;99.90
4487;DHT22;2256;48.740;9.106;2023-05-10T02:47:46;12.40;99.90
4487;DHT22;2256;48.740;9.106;2023-05-10T02:50:13;12.30;99.90
4487;DHT22;2256;48.740;9.106;2023-05-10T02:52:42;12.30;99.90
4487;DHT22;2256;48.740;9.106;2023-05-10T02:55:14;12.30;99.90
4487;DHT22;2256;48.740;9.106;2023-05-10T02:57:44;12.30;99.90
4487;DHT22;2256;48.740;9.106;2023-05-10T03:00:14;12.30;99.90
4487;DHT22;2256;48.740;9.106;2023-05-10T03:02:41;12.20;99.90
4487;DHT22;2256;48.740;9.106;2023-05-10T03:05:08;12.20;99.90
4487;DHT22;2256;48.740;9.106;2023-05-10T03:07:35;12.20;99.90
4487;DHT22;2256;48.740;9.106;2023-05-10T03:10:06;12.30;99.90
4487;DHT22;2256;48.740;9.106;2023-05-10T03:12:46;12.20;99.90
4487;DHT22;2256;48.740;9.106;2023-05-10T03:15:19;12.40;99.90
4487;DHT22;2256;48.740;9.106;2023-05-10T03:17:55;12.30;99.90
4487;DHT22;2256;48.740;9.106;2023-05-10T03:20:26;12.40;99.90
4487;DHT22;2256;48.740;9.106;2023-05-10T03:23:00;12.50;99.90
4487;DHT22;2256;48.740;9.106;2023-05-10T03:25:29;12.40;99.90
4487;DHT22;2256;48.740;9.106;2023-05-10T03:28:01;12.50;99.90
4487;DHT22;2256;48.740;9.106;2023-05-10T03:30:28;12.50;99.90
4487;DHT22;2256;48.740;9.106;2023-05-10T03:32:55;12.40;99.90
4487;DHT22;2256;48.740;9.106;2023-05-10T03:35:23;12.40;99.90
4487;DHT22;2256;48.740;9.106;2023-05-10T03:37:50;12.40;99.90
4487;DHT22;2256;48.740;9.106;2023-05-10T03:40:17;12.40;99.90
4487;DHT22;2256;48.740;9.106;2023-05-10T03:42:44;12.40;99.90
4487;DHT22;2256;48.740;9.106;2023-05-10T03:45:12;12.40;99.90
4487;DHT22;2256;48.740;9.106;2023-05-10T03:47:38;12.40;99.90
4487;DHT22;2256;48.740;9.106;2023-05-10T03:50:07;12.40;99.90
4487;DHT22;2256;48.740;9.106;2023-05-10T03:52:33;12.50;99.90
4487;DHT22;2256;48.740;9.106;2023-05-10T03:55:00;12.50;99.90
4487;DHT22;2256;48.740;9.106;2023-05-10T03:57:29;12.50;99.90
4487;DHT22;2256;48.740;9.106;2023-05-10T03:59:56;12.50;99.90
4487;DHT22;2256;48.740;9.106;2023-05-10T04:02:24;12.50;99.90
4487;DHT22;2256;48.740;9.106;2023-05-10T04:04:51;12.50;99.90
4487;DHT22;2256;48.740;9.106;2023-05-10T04:07:17;12.40;99.90
4487;DHT22;2256;48.740;9.106;2023-05-10T04:09:44;12.50;99.90
4487;DHT22;2256;48.740;9.106;2023-05-10T04:12:11;12.40;99.90
4487;DHT22;2256;48.740;9.106;2023-05-10T04:14:38;12.50;99.90
4487;DHT22;2256;48.740;9.106;2023-05-10T04:17:04;12.50;99.90
4487;DHT22;2256;48.740;9.106;2023-05-10T04:19:33;12.40;99.90
4487;DHT22;2256;48.740;9.106;2023-05-10T04:22:01;12.30;99.90
4487;DHT22;2256;48.740;9.106;2023-05-10T04:24:28;12.40;99.90
4487;DHT22;2256;48.740;9.106;2023-05-10T04:26:55;12.40;99.90
4487;DHT22;2256;48.740;9.106;2023-05-10T04:29:22;12.40;99.90
4487;DHT22;2256;48.740;9.106;2023-05-10T04:31:49;12.40;99.90
4487;DHT22;2256;48.740;9.106;2023-05-10T04:34:16;12.40;99.90
4487;DHT22;2256;48.740;9.106;2023-05-10T04:36:44;12.50;99.90
4487;DHT22;2256;48.740;9.106;2023-05-10T04:39:11;12.50;99.90
4487;DHT22;2256;48.740;9.106;2023-05-10T04:41:39;12.50;99.90
4487;DHT22;2256;48.740;9.106;2023-05-10T04:44:05;12.50;99.90
4487;DHT22;2256;48.740;9.106;2023-05-10T04:46:32;12.50;99.90
4487;DHT22;2256;48.740;9.106;2023-05-10T04:48:59;12.50;99.90
4487;DHT22;2256;48.740;9.106;2023-05-10T04:51:26;12.60;99.90
4487;DHT22;2256;48.740;9.106;2023-05-10T04:53:54;12.60;99.90
4487;DHT22;2256;48.740;9.106;2023-05-10T04:56:21;12.70;99.90
4487;DHT22;2256;48.740;9.106;2023-05-10T04:58:48;12.60;99.90
4487;DHT22;2256;48.740;9.106;2023-05-10T05:01:15;12.60;99.90
4487;DHT22;2256;48.740;9.106;2023-05-10T05:03:41;12.70;99.90
4487;DHT22;2256;48.740;9.106;2023-05-10T05:06:08;12.70;99.90
4487;DHT22;2256;48.740;9.106;2023-05-10T05:08:35;12.80;99.90
4487;DHT22;2256;48.740;9.106;2023-05-10T05:11:03;12.80;99.90
4487;DHT22;2256;48.740;9.106;2023-05-10T05:13:30;13.00;99.90
4487;DHT22;2256;48.740;9.106;2023-05-10T05:15:59;13.10;99.90
4487;DHT22;2256;48.740;9.106;2023-05-10T05:18:26;13.10;99.90
4487;DHT22;2256;48.740;9.106;2023-05-10T05:20:53;13.10;99.90
4487;DHT22;2256;48.740;9.106;2023-05-10T05:23:20;13.20;99.90
4487;DHT22;2256;48.740;9.106;2023-05-10T05:25:51;13.20;99.90
4487;DHT22;2256;48.740;9.106;2023-05-10T05:28:19;13.30;99.90
4487;DHT22;2256;48.740;9.106;2023-05-10T05:30:46;13.30;99.90
4487;DHT22;2256;48.740;9.106;2023-05-10T05:33:13;13.30;99.90
4487;DHT22;2256;48.740;9.106;2023-05-10T05:35:40;13.40;99.90
4487;DHT22;2256;48.740;9.106;2023-05-10T05:38:08;13.50;99.90
4487;DHT22;2256;48.740;9.106;2023-05-10T05:40:35;13.50;99.90
4487;DHT22;2256;48.740;9.106;2023-05-10T05:43:02;13.60;99.90
4487;DHT22;2256;48.740;9.106;2023-05-10T05:45:30;13.60;99.90
4487;DHT22;2256;48.740;9.106;2023-05-10T05:47:57;13.60;99.90
4487;DHT22;2256;48.740;9.106;2023-05-10T05:50:23;13.60;99.90
4487;DHT22;2256;48.740;9.106;2023-05-10T05:52:50;13.50;99.90
4487;DHT22;2256;48.740;9.106;2023-05-10T05:55:18;13.60;99.90
4487;DHT22;2256;48.740;9.106;2023-05-10T05:57:44;13.70;99.90
4487;DHT22;2256;48.740;9.106;2023-05-10T06:00:12;13.70;99.90
4487;DHT22;2256;48.740;9.106;2023-05-10T06:02:41;13.70;99.90
4487;DHT22;2256;48.740;9.106;2023-05-10T06:05:08;13.80;99.90
4487;DHT22;2256;48.740;9.106;2023-05-10T06:07:35;13.90;99.90
4487;DHT22;2256;48.740;9.106;2023-05-10T06:10:02;13.90;99.90
4487;DHT22;2256;48.740;9.106;2023-05-10T06:12:29;14.00;99.90
4487;DHT22;2256;48.740;9.106;2023-05-10T06:14:55;14.10;99.90
4487;DHT22;2256;48.740;9.106;2023-05-10T06:17:22;14.20;99.90
4487;DHT22;2256;48.740;9.106;2023-05-10T06:19:51;14.20;99.90
4487;DHT22;2256;48.740;9.106;2023-05-10T06:22:18;14.30;99.90
4487;DHT22;2256;48.740;9.106;2023-05-10T06:24:44;14.30;99.90
4487;DHT22;2256;48.740;9.106;2023-05-10T06:27:11;14.40;99.90
4487;DHT22;2256;48.740;9.106;2023-05-10T06:29:41;14.40;99.90
4487;DHT22;2256;48.740;9.106;2023-05-10T06:32:08;14.40;99.90
4487;DHT22;2256;48.740;9.106;2023-05-10T06:34:35;14.40;99.90
4487;DHT22;2256;48.740;9.106;2023-05-10T06:37:04;14.40;99.90
4487;DHT22;2256;48.740;9.106;2023-05-10T06:39:30;14.40;99.90
4487;DHT22;2256;48.740;9.106;2023-05-10T06:41:57;14.40;99.90
4487;DHT22;2256;48.740;9.106;2023-05-10T06:44:24;14.40;99.90
4487;DHT22;2256;48.740;9.106;2023-05-10T06:46:51;14.30;99.90
4487;DHT22;2256;48.740;9.106;2023-05-10T06:49:19;14.20;99.90
4487;DHT22;2256;48.740;9.106;2023-05-10T06:51:45;14.20;99.90
4487;DHT22;2256;48.740;9.106;2023-05-10T06:54:14;14.30;99.90
4487;DHT22;2256;48.740;9.106;2023-05-10T06:56:41;14.10;99.90
4487;DHT22;2256;48.740;9.106;2023-05-10T06:59:08;14.10;99.90
4487;DHT22;2256;48.740;9.106;2023-05-10T07:01:34;14.20;99.90
4487;DHT22;2256;48.740;9.106;2023-05-10T07:04:01;14.40;99.90
4487;DHT22;2256;48.740;9.106;2023-05-10T07:06:28;14.60;99.90
4487;DHT22;2256;48.740;9.106;2023-05-10T07:08:55;14.80;99.90
4487;DHT22;2256;48.740;9.106;2023-05-10T07:11:23;15.10;99.90
4487;DHT22;2256;48.740;9.106;2023-05-10T07:13:52;15.40;99.90
4487;DHT22;2256;48.740;9.106;2023-05-10T07:16:19;15.80;99.90
4487;DHT22;2256;48.740;9.106;2023-05-10T07:18:46;16.00;99.90
4487;DHT22;2256;48.740;9.106;2023-05-10T07:21:13;16.20;99.90
4487;DHT22;2256;48.740;9.106;2023-05-10T07:23:40;16.60;99.90
4487;DHT22;2256;48.740;9.106;2023-05-10T07:26:07;16.80;99.90
4487;DHT22;2256;48.740;9.106;2023-05-10T07:28:36;16.90;99.90
4487;DHT22;2256;48.740;9.106;2023-05-10T07:31:04;17.10;99.90
4487;DHT22;2256;48.740;9.106;2023-05-10T07:33:31;17.20;99.90
4487;DHT22;2256;48.740;9.106;2023-05-10T07:35:58;17.20;99.90
4487;DHT22;2256;48.740;9.106;2023-05-10T07:38:24;17.30;99.90
4487;DHT22;2256;48.740;9.106;2023-05-10T07:40:51;17.30;99.90
4487;DHT22;2256;48.740;9.106;2023-05-10T07:43:18;17.20;99.90
4487;DHT22;2256;48.740;9.106;2023-05-10T07:45:46;17.20;99.90
4487;DHT22;2256;48.740;9.106;2023-05-10T07:48:13;17.20;99.90
4487;DHT22;2256;48.740;9.106;2023-05-10T07:50:39;17.10;99.90
4487;DHT22;2256;48.740;9.106;2023-05-10T07:53:07;17.10;99.90
4487;DHT22;2256;48.740;9.106;2023-05-10T07:55:33;16.90;99.90
4487;DHT22;2256;48.740;9.106;2023-05-10T07:58:00;16.80;99.90
4487;DHT22;2256;48.740;9.106;2023-05-10T08:00:27;16.90;99.90
4487;DHT22;2256;48.740;9.106;2023-05-10T08:02:55;16.80;99.90
4487;DHT22;2256;48.740;9.106;2023-05-10T08:05:22;16.70;99.90
4487;DHT22;2256;48.740;9.106;2023-05-10T08:07:49;16.70;99.90
4487;DHT22;2256;48.740;9.106;2023-05-10T08:10:15;16.80;99.90
4487;DHT22;2256;48.740;9.106;2023-05-10T08:12:42;16.90;99.90
4487;DHT22;2256;48.740;9.106;2023-05-10T08:15:10;16.90;99.90
4487;DHT22;2256;48.740;9.106;2023-05-10T08:17:37;17.00;99.90
4487;DHT22;2256;48.740;9.106;2023-05-10T08:20:07;17.00;99.90
4487;DHT22;2256;48.740;9.106;2023-05-10T08:22:34;17.10;99.90
4487;DHT22;2256;48.740;9.106;2023-05-10T08:25:00;17.10;99.90
4487;DHT22;2256;48.740;9.106;2023-05-10T08:27:27;17.10;99.90
4487;DHT22;2256;48.740;9.106;2023-05-10T08:29:54;17.30;99.90
4487;DHT22;2256;48.740;9.106;2023-05-10T08:32:20;17.30;99.90
4487;DHT22;2256;48.740;9.106;2023-05-10T08:34:47;17.30;99.90
4487;DHT22;2256;48.740;9.106;2023-05-10T08:37:15;17.30;99.90
4487;DHT22;2256;48.740;9.106;2023-05-10T08:39:42;17.40;99.90
4487;DHT22;2256;48.740;9.106;2023-05-10T08:42:09;17.50;99.90
4487;DHT22;2256;48.740;9.106;2023-05-10T08:44:36;17.50;99.90
4487;DHT22;2256;48.740;9.106;2023-05-10T08:47:05;17.70;99.90
4487;DHT22;2256;48.740;9.106;2023-05-10T08:49:33;17.90;99.90
4487;DHT22;2256;48.740;9.106;2023-05-10T08:52:02;18.00;99.90
4487;DHT22;2256;48.740;9.106;2023-05-10T08:54:31;18.10;99.90
4487;DHT22;2256;48.740;9.106;2023-05-10T08:56:58;18.00;99.90
4487;DHT22;2256;48.740;9.106;2023-05-10T08:59:25;17.90;99.90
4487;DHT22;2256;48.740;9.106;2023-05-10T09:01:52;17.60;99.90
4487;DHT22;2256;48.740;9.106;2023-05-10T09:04:20;17.50;99.90
4487;DHT22;2256;48.740;9.106;2023-05-10T09:06:47;17.50;99.90
4487;DHT22;2256;48.740;9.106;2023-05-10T09:09:14;17.50;99.90
4487;DHT22;2256;48.740;9.106;2023-05-10T09:11:43;17.60;99.90
4487;DHT22;2256;48.740;9.106;2023-05-10T09:14:12;17.50;99.90
4487;DHT22;2256;48.740;9.106;2023-05-10T09:16:40;17.40;99.90
4487;DHT22;2256;48.740;9.106;2023-05-10T09:19:08;17.20;99.90
4487;DHT22;2256;48.740;9.106;2023-05-10T09:21:36;17.10;99.90
4487;DHT22;2256;48.740;9.106;2023-05-10T09:24:04;16.70;99.90
4487;DHT22;2256;48.740;9.106;2023-05-10T09:26:31;16.50;99.90
4487;DHT22;2256;48.740;9.106;2023-05-10T09:29:00;16.40;99.90
4487;DHT22;2256;48.740;9.106;2023-05-10T09:31:43;16.20;99.90
4487;DHT22;2256;48.740;9.106;2023-05-10T09:34:15;16.30;99.90
4487;DHT22;2256;48.740;9.106;2023-05-10T09:36:51;16.40;99.90
4487;DHT22;2256;48.740;9.106;2023-05-10T09:39:18;16.70;99.90
4487;DHT22;2256;48.740;9.106;2023-05-10T09:41:44;16.90;99.90
4487;DHT22;2256;48.740;9.106;2023-05-10T09:44:16;17.00;99.90
4487;DHT22;2256;48.740;9.106;2023-05-10T09:46:49;17.50;99.90
4487;DHT22;2256;48.740;9.106;2023-05-10T09:49:16;18.20;99.90
4487;DHT22;2256;48.740;9.106;2023-05-10T09:51:42;18.60;99.90
4487;DHT22;2256;48.740;9.106;2023-05-10T09:54:10;18.80;99.90
4487;DHT22;2256;48.740;9.106;2023-05-10T09:56:37;18.80;99.90
4487;DHT22;2256;48.740;9.106;2023-05-10T09:59:07;18.80;99.90
4487;DHT22;2256;48.740;9.106;2023-05-10T10:01:35;18.80;99.90
4487;DHT22;2256;48.740;9.106;2023-05-10T10:04:04;18.60;99.90
4487;DHT22;2256;48.740;9.106;2023-05-10T10:06:35;18.70;99.90
4487;DHT22;2256;48.740;9.106;2023-05-10T10:09:03;18.80;99.90
4487;DHT22;2256;48.740;9.106;2023-05-10T10:11:30;18.90;99.90
4487;DHT22;2256;48.740;9.106;2023-05-10T10:13:56;18.90;99.90
4487;DHT22;2256;48.740;9.106;2023-05-10T10:16:24;18.80;99.90
4487;DHT22;2256;48.740;9.106;2023-05-10T10:18:52;18.60;99.90
4487;DHT22;2256;48.740;9.106;2023-05-10T10:21:19;18.40;99.90
4487;DHT22;2256;48.740;9.106;2023-05-10T10:23:46;18.30;99.90
4487;DHT22;2256;48.740;9.106;2023-05-10T10:26:14;18.30;99.90
4487;DHT22;2256;48.740;9.106;2023-05-10T10:28:50;18.20;99.90
4487;DHT22;2256;48.740;9.106;2023-05-10T10:31:26;18.20;99.90
4487;DHT22;2256;48.740;9.106;2023-05-10T10:34:00;18.00;99.90
4487;DHT22;2256;48.740;9.106;2023-05-10T10:36:29;18.00;99.90
4487;DHT22;2256;48.740;9.106;2023-05-10T10:38:59;18.20;99.90
4487;DHT22;2256;48.740;9.106;2023-05-10T10:41:28;18.40;99.90
4487;DHT22;2256;48.740;9.106;2023-05-10T10:44:24;18.70;99.90
4487;DHT22;2256;48.740;9.106;2023-05-10T10:49:51;19.10;99.90
4487;DHT22;2256;48.740;9.106;2023-05-10T10:52:23;18.50;99.90
4487;DHT22;2256;48.740;9.106;2023-05-10T10:54:58;17.70;99.90
4487;DHT22;2256;48.740;9.106;2023-05-10T10:57:25;17.10;99.90
4487;DHT22;2256;48.740;9.106;2023-05-10T11:02:43;16.50;99.90
4487;DHT22;2256;48.740;9.106;2023-05-10T11:05:46;16.60;99.90
4487;DHT22;2256;48.740;9.106;2023-05-10T11:08:18;16.90;99.90
4487;DHT22;2256;48.740;9.106;2023-05-10T11:11:06;17.10;99.90
4487;DHT22;2256;48.740;9.106;2023-05-10T11:13:35;17.10;99.90
4487;DHT22;2256;48.740;9.106;2023-05-10T11:16:12;17.10;99.90
4487;DHT22;2256;48.740;9.106;2023-05-10T11:18:39;17.10;99.90
4487;DHT22;2256;48.740;9.106;2023-05-10T11:21:09;16.90;99.90
4487;DHT22;2256;48.740;9.106;2023-05-10T11:23:52;17.00;99.90
4487;DHT22;2256;48.740;9.106;2023-05-10T11:26:22;17.00;99.90
4487;DHT22;2256;48.740;9.106;2023-05-10T11:28:52;16.90;99.90
4487;DHT22;2256;48.740;9.106;2023-05-10T11:31:20;16.80;99.90
4487;DHT22;2256;48.740;9.106;2023-05-10T11:33:48;16.90;99.90
4487;DHT22;2256;48.740;9.106;2023-05-10T11:36:17;17.00;99.90
4487;DHT22;2256;48.740;9.106;2023-05-10T11:38:44;16.90;99.90
4487;DHT22;2256;48.740;9.106;2023-05-10T11:41:12;17.10;99.90
4487;DHT22;2256;48.740;9.106;2023-05-10T11:43:39;17.10;99.90
4487;DHT22;2256;48.740;9.106;2023-05-10T11:46:08;17.10;99.90
4487;DHT22;2256;48.740;9.106;2023-05-10T11:48:36;16.90;99.90
4487;DHT22;2256;48.740;9.106;2023-05-10T11:51:03;16.70;99.90
4487;DHT22;2256;48.740;9.106;2023-05-10T11:53:32;16.50;99.90
4487;DHT22;2256;48.740;9.106;2023-05-10T11:56:03;16.30;99.90
4487;DHT22;2256;48.740;9.106;2023-05-10T11:58:31;16.30;99.90
4487;DHT22;2256;48.740;9.106;2023-05-10T12:00:58;16.40;99.90
4487;DHT22;2256;48.740;9.106;2023-05-10T12:03:25;16.70;99.90
4487;DHT22;2256;48.740;9.106;2023-05-10T12:05:52;17.00;99.90
4487;DHT22;2256;48.740;9.106;2023-05-10T12:08:21;17.20;99.90
4487;DHT22;2256;48.740;9.106;2023-05-10T12:10:50;17.30;99.90
4487;DHT22;2256;48.740;9.106;2023-05-10T12:13:18;17.60;99.90
4487;DHT22;2256;48.740;9.106;2023-05-10T12:15:46;17.90;99.90
4487;DHT22;2256;48.740;9.106;2023-05-10T12:18:13;17.90;99.90
4487;DHT22;2256;48.740;9.106;2023-05-10T12:20:41;18.10;99.90
4487;DHT22;2256;48.740;9.106;2023-05-10T12:23:09;18.10;99.90
4487;DHT22;2256;48.740;9.106;2023-05-10T12:25:37;18.10;99.90
4487;DHT22;2256;48.740;9.106;2023-05-10T12:28:07;18.10;99.90
4487;DHT22;2256;48.740;9.106;2023-05-10T12:30:35;18.00;99.90
4487;DHT22;2256;48.740;9.106;2023-05-10T12:33:07;17.80;99.90
4487;DHT22;2256;48.740;9.106;2023-05-10T12:35:43;17.80;99.90
4487;DHT22;2256;48.740;9.106;2023-05-10T12:38:25;17.90;99.90
4487;DHT22;2256;48.740;9.106;2023-05-10T12:40:52;17.90;99.90
4487;DHT22;2256;48.740;9.106;2023-05-10T12:43:20;17.90;99.90
4487;DHT22;2256;48.740;9.106;2023-05-10T12:45:47;17.80;99.90
4487;DHT22;2256;48.740;9.106;2023-05-10T12:48:14;17.60;99.90
4487;DHT22;2256;48.740;9.106;2023-05-10T12:50:42;17.30;99.90
4487;DHT22;2256;48.740;9.106;2023-05-10T12:53:08;17.00;99.90
4487;DHT22;2256;48.740;9.106;2023-05-10T12:55:35;16.80;99.90
4487;DHT22;2256;48.740;9.106;2023-05-10T12:58:02;16.60;99.90
4487;DHT22;2256;48.740;9.106;2023-05-10T13:00:30;16.40;99.90
4487;DHT22;2256;48.740;9.106;2023-05-10T13:02:57;16.40;99.90
4487;DHT22;2256;48.740;9.106;2023-05-10T13:05:24;16.50;99.90
4487;DHT22;2256;48.740;9.106;2023-05-10T13:07:53;16.70;99.90
4487;DHT22;2256;48.740;9.106;2023-05-10T13:10:20;16.80;99.90
4487;DHT22;2256;48.740;9.106;2023-05-10T13:12:49;17.10;99.90
4487;DHT22;2256;48.740;9.106;2023-05-10T13:15:15;17.30;99.90
4487;DHT22;2256;48.740;9.106;2023-05-10T13:17:47;17.50;99.90
4487;DHT22;2256;48.740;9.106;2023-05-10T13:20:14;17.70;99.90
4487;DHT22;2256;48.740;9.106;2023-05-10T13:22:44;17.80;99.90
4487;DHT22;2256;48.740;9.106;2023-05-10T13:25:11;18.00;99.90
4487;DHT22;2256;48.740;9.106;2023-05-10T13:27:39;18.10;99.90
4487;DHT22;2256;48.740;9.106;2023-05-10T13:30:06;18.20;99.90
4487;DHT22;2256;48.740;9.106;2023-05-10T13:32:34;18.30;99.90
4487;DHT22;2256;48.740;9.106;2023-05-10T13:35:02;18.30;99.90
4487;DHT22;2256;48.740;9.106;2023-05-10T13:37:30;18.10;99.90
4487;DHT22;2256;48.740;9.106;2023-05-10T13:39:58;17.90;99.90
4487;DHT22;2256;48.740;9.106;2023-05-10T13:42:25;17.80;99.90
4487;DHT22;2256;48.740;9.106;2023-05-10T13:44:52;17.70;99.90
4487;DHT22;2256;48.740;9.106;2023-05-10T13:47:19;17.70;99.90
4487;DHT22;2256;48.740;9.106;2023-05-10T13:49:47;17.70;99.90
4487;DHT22;2256;48.740;9.106;2023-05-10T13:52:15;17.70;99.90
4487;DHT22;2256;48.740;9.106;2023-05-10T13:54:42;17.80;99.90
4487;DHT22;2256;48.740;9.106;2023-05-10T13:57:09;17.90;99.90
4487;DHT22;2256;48.740;9.106;2023-05-10T13:59:38;17.90;99.90
4487;DHT22;2256;48.740;9.106;2023-05-10T14:02:04;18.20;99.90
4487;DHT22;2256;48.740;9.106;2023-05-10T14:04:31;18.30;99.90
4487;DHT22;2256;48.740;9.106;2023-05-10T14:07:00;18.20;99.80
4487;DHT22;2256;48.740;9.106;2023-05-10T14:09:29;18.20;99.40
4487;DHT22;2256;48.740;9.106;2023-05-10T14:11:55;18.20;99.60
4487;DHT22;2256;48.740;9.106;2023-05-10T14:14:23;18.30;99.50
4487;DHT22;2256;48.740;9.106;2023-05-10T14:16:50;18.40;99.20
4487;DHT22;2256;48.740;9.106;2023-05-10T14:19:17;18.40;99.50
4487;DHT22;2256;48.740;9.106;2023-05-10T14:21:44;18.30;99.40
4487;DHT22;2256;48.740;9.106;2023-05-10T14:24:10;18.30;99.20
4487;DHT22;2256;48.740;9.106;2023-05-10T14:26:38;18.30;98.50
4487;DHT22;2256;48.740;9.106;2023-05-10T14:29:05;18.30;98.80
4487;DHT22;2256;48.740;9.106;2023-05-10T14:31:32;18.30;99.20
4487;DHT22;2256;48.740;9.106;2023-05-10T14:33:59;18.40;99.40
4487;DHT22;2256;48.740;9.106;2023-05-10T14:36:26;18.30;99.30
4487;DHT22;2256;48.740;9.106;2023-05-10T14:38:52;18.40;99.00
4487;DHT22;2256;48.740;9.106;2023-05-10T14:41:19;18.40;99.60
4487;DHT22;2256;48.740;9.106;2023-05-10T14:43:47;18.30;99.10
4487;DHT22;2256;48.740;9.106;2023-05-10T14:46:14;18.10;98.60
4487;DHT22;2256;48.740;9.106;2023-05-10T14:48:42;18.00;98.60
4487;DHT22;2256;48.740;9.106;2023-05-10T14:51:09;17.90;99.30
4487;DHT22;2256;48.740;9.106;2023-05-10T14:53:36;17.80;99.10
4487;DHT22;2256;48.740;9.106;2023-05-10T14:56:03;17.70;99.00
4487;DHT22;2256;48.740;9.106;2023-05-10T14:58:30;17.70;99.10
4487;DHT22;2256;48.740;9.106;2023-05-10T15:00:58;17.70;99.00
4487;DHT22;2256;48.740;9.106;2023-05-10T15:03:25;17.90;99.50
4487;DHT22;2256;48.740;9.106;2023-05-10T15:05:52;18.00;99.40
4487;DHT22;2256;48.740;9.106;2023-05-10T15:08:19;18.10;99.70
4487;DHT22;2256;48.740;9.106;2023-05-10T15:10:46;18.20;99.60
4487;DHT22;2256;48.740;9.106;2023-05-10T15:13:13;18.20;98.80
4487;DHT22;2256;48.740;9.106;2023-05-10T15:15:40;18.00;99.20
4487;DHT22;2256;48.740;9.106;2023-05-10T15:18:09;17.90;98.80
4487;DHT22;2256;48.740;9.106;2023-05-10T15:20:35;17.80;99.00
4487;DHT22;2256;48.740;9.106;2023-05-10T15:23:02;17.80;99.00
4487;DHT22;2256;48.740;9.106;2023-05-10T15:25:29;17.80;99.80
4487;DHT22;2256;48.740;9.106;2023-05-10T15:27:56;17.90;99.10
4487;DHT22;2256;48.740;9.106;2023-05-10T15:30:23;17.80;99.50
4487;DHT22;2256;48.740;9.106;2023-05-10T15:32:50;17.70;99.20
4487;DHT22;2256;48.740;9.106;2023-05-10T15:35:18;17.70;99.90
4487;DHT22;2256;48.740;9.106;2023-05-10T15:37:46;17.60;99.70
4487;DHT22;2256;48.740;9.106;2023-05-10T15:40:13;17.60;99.60
4487;DHT22;2256;48.740;9.106;2023-05-10T15:42:40;17.70;99.60
4487;DHT22;2256;48.740;9.106;2023-05-10T15:45:09;17.70;99.80
4487;DHT22;2256;48.740;9.106;2023-05-10T15:47:36;17.90;99.10
4487;DHT22;2256;48.740;9.106;2023-05-10T15:50:05;17.90;98.80
4487;DHT22;2256;48.740;9.106;2023-05-10T15:52:34;17.90;99.00
4487;DHT22;2256;48.740;9.106;2023-05-10T15:55:01;18.00;98.90
4487;DHT22;2256;48.740;9.106;2023-05-10T15:57:28;18.00;99.20
4487;DHT22;2256;48.740;9.106;2023-05-10T15:59:55;18.00;97.90
4487;DHT22;2256;48.740;9.106;2023-05-10T16:02:22;18.00;98.30
4487;DHT22;2256;48.740;9.106;2023-05-10T16:04:49;17.90;97.60
4487;DHT22;2256;48.740;9.106;2023-05-10T16:07:17;17.80;98.00
4487;DHT22;2256;48.740;9.106;2023-05-10T16:09:45;17.70;98.00
4487;DHT22;2256;48.740;9.106;2023-05-10T16:12:13;17.70;98.20
4487;DHT22;2256;48.740;9.106;2023-05-10T16:14:41;17.60;97.30
4487;DHT22;2256;48.740;9.106;2023-05-10T16:17:08;17.60;97.60